createdAt,value
2023-04-18T00:00:38.684Z,23.15
2023-04-18T00:03:05.271Z,20.48
2023-04-18T00:05:31.785Z,19.13
2023-04-18T00:07:58.207Z,22.27
2023-04-18T00:10:24.731Z,20.92
2023-04-18T00:12:51.520Z,19.15
2023-04-18T00:15:18.469Z,19.42
2023-04-18T00:17:44.849Z,19.63
2023-04-18T00:20:12.593Z,21.77
2023-04-18T00:22:46.721Z,16.25
2023-04-18T00:25:13.197Z,15.95
2023-04-18T00:27:39.720Z,17.73
2023-04-18T00:30:06.703Z,16.10
2023-04-18T00:32:33.276Z,16.10
2023-04-18T00:34:59.748Z,15.85
2023-04-18T00:37:26.095Z,16.83
2023-04-18T00:39:53.887Z,16.17
2023-04-18T00:42:21.912Z,15.32
2023-04-18T00:44:48.868Z,15.98
2023-04-18T00:47:16.721Z,15.75
2023-04-18T00:49:44.042Z,13.93
2023-04-18T00:52:11.121Z,13.65
2023-04-18T00:54:37.675Z,18.10
2023-04-18T00:57:04.002Z,18.92
2023-04-18T00:59:30.419Z,13.43
2023-04-18T01:01:56.914Z,12.90
2023-04-18T01:04:23.384Z,16.85
2023-04-18T01:06:49.954Z,17.08
2023-04-18T01:09:16.308Z,14.30
2023-04-18T01:11:42.681Z,14.93
2023-04-18T01:14:09.032Z,10.93
2023-04-18T01:16:36.842Z,13.07
2023-04-18T01:19:03.987Z,12.82
2023-04-18T01:21:31.232Z,13.30
2023-04-18T01:24:00.002Z,13.18
2023-04-18T01:26:26.931Z,15.23
2023-04-18T01:28:53.261Z,14.50
2023-04-18T01:31:19.629Z,13.40
2023-04-18T01:33:48.873Z,11.85
2023-04-18T01:36:15.387Z,13.85
2023-04-18T01:38:41.755Z,12.38
2023-04-18T01:41:08.101Z,14.00
2023-04-18T01:43:34.461Z,13.20
2023-04-18T01:46:00.994Z,12.18
2023-04-18T01:48:27.380Z,10.27
2023-04-18T01:50:53.678Z,14.07
2023-04-18T01:53:20.211Z,12.43
2023-04-18T01:55:49.045Z,15.57
2023-04-18T01:58:16.231Z,13.63
2023-04-18T02:00:43.000Z,12.30
2023-04-18T02:03:09.522Z,15.20
2023-04-18T02:05:36.391Z,14.98
2023-04-18T02:08:02.830Z,13.82
2023-04-18T02:10:29.189Z,13.80
2023-04-18T02:12:55.592Z,15.85
2023-04-18T02:15:23.581Z,12.93
2023-04-18T02:17:50.548Z,12.38
2023-04-18T02:20:17.004Z,11.85
2023-04-18T02:22:43.684Z,13.40
2023-04-18T02:25:10.854Z,15.77
2023-04-18T02:27:37.180Z,13.82
2023-04-18T02:30:03.693Z,13.38
2023-04-18T02:32:30.172Z,12.88
2023-04-18T02:34:56.632Z,14.75
2023-04-18T02:37:23.045Z,15.30
2023-04-18T02:39:49.492Z,12.18
2023-04-18T02:42:15.922Z,13.52
2023-04-18T02:44:42.353Z,13.25
2023-04-18T02:47:08.682Z,16.05
2023-04-18T02:49:34.965Z,16.05
2023-04-18T02:52:01.739Z,13.77
2023-04-18T02:54:28.102Z,12.95
2023-04-18T02:56:54.855Z,13.00
2023-04-18T02:59:21.201Z,13.93
2023-04-18T03:01:47.540Z,12.48
2023-04-18T03:04:14.135Z,12.40
2023-04-18T03:06:41.650Z,14.70
2023-04-18T03:09:08.031Z,15.43
2023-04-18T03:11:34.368Z,14.88
2023-04-18T03:14:00.751Z,11.80
2023-04-18T03:16:27.731Z,14.55
2023-04-18T03:18:54.214Z,15.88
2023-04-18T03:21:20.575Z,12.63
2023-04-18T03:23:46.886Z,14.85
2023-04-18T03:26:13.771Z,12.85
2023-04-18T03:28:40.632Z,18.33
2023-04-18T03:31:07.072Z,12.70
2023-04-18T03:33:33.466Z,13.25
2023-04-18T03:35:59.826Z,15.98
2023-04-18T03:38:26.139Z,16.52
2023-04-18T03:40:52.710Z,12.80
2023-04-18T03:43:19.279Z,12.60
2023-04-18T03:45:47.408Z,13.38
2023-04-18T03:48:14.612Z,15.55
2023-04-18T03:50:41.241Z,14.65
2023-04-18T03:53:07.693Z,13.85
2023-04-18T03:55:34.031Z,13.52
2023-04-18T03:58:01.080Z,14.93
2023-04-18T04:00:27.455Z,15.07
2023-04-18T04:02:53.986Z,15.23
2023-04-18T04:05:20.432Z,15.18
2023-04-18T04:07:46.830Z,16.75
2023-04-18T04:10:13.221Z,15.43
2023-04-18T04:12:39.616Z,13.25
2023-04-18T04:15:06.257Z,19.13
2023-04-18T04:17:32.554Z,15.07
2023-04-18T04:19:58.870Z,16.35
2023-04-18T04:22:25.707Z,18.17
2023-04-18T04:24:52.154Z,13.40
2023-04-18T04:27:18.904Z,15.52
2023-04-18T04:29:45.480Z,17.90
2023-04-18T04:32:12.963Z,15.60
2023-04-18T04:34:41.433Z,15.60
2023-04-18T04:37:08.333Z,17.08
2023-04-18T04:39:34.657Z,15.63
2023-04-18T04:42:04.459Z,15.23
2023-04-18T04:44:31.496Z,15.98
2023-04-18T04:46:57.886Z,16.10
2023-04-18T04:49:24.169Z,14.60
2023-04-18T04:51:50.663Z,15.50
2023-04-18T04:54:17.104Z,14.75
2023-04-18T04:56:43.586Z,15.88
2023-04-18T04:59:09.945Z,14.20
2023-04-18T05:01:36.404Z,16.88
2023-04-18T05:04:02.932Z,17.50
2023-04-18T05:06:29.457Z,16.27
2023-04-18T05:08:57.521Z,18.92
2023-04-18T05:11:24.169Z,19.35
2023-04-18T05:13:50.517Z,17.20
2023-04-18T05:16:17.070Z,16.63
2023-04-18T05:18:47.682Z,19.80
2023-04-18T05:21:14.015Z,17.50
2023-04-18T05:23:40.353Z,15.70
2023-04-18T05:26:06.752Z,19.10
2023-04-18T05:28:33.138Z,17.33
2023-04-18T05:31:02.279Z,18.58
2023-04-18T05:33:29.474Z,16.25
2023-04-18T05:35:56.221Z,16.48
2023-04-18T05:38:22.618Z,18.92
2023-04-18T05:40:51.139Z,16.98
2023-04-18T05:43:19.862Z,19.73
2023-04-18T05:45:46.491Z,18.30
2023-04-18T05:48:13.352Z,16.88
2023-04-18T05:50:39.896Z,17.65
2023-04-18T05:53:06.731Z,17.70
2023-04-18T05:55:34.391Z,17.63
2023-04-18T05:58:01.065Z,17.23
2023-04-18T06:00:27.979Z,21.13
2023-04-18T06:02:54.518Z,16.95
2023-04-18T06:05:21.415Z,14.55
2023-04-18T06:07:48.294Z,17.52
2023-04-18T06:10:15.764Z,22.98
2023-04-18T06:12:42.350Z,16.27
2023-04-18T06:15:09.521Z,17.52
2023-04-18T06:17:35.953Z,18.55
2023-04-18T06:20:03.806Z,17.70
2023-04-18T06:22:30.406Z,16.50
2023-04-18T06:24:56.784Z,16.35
2023-04-18T06:27:31.095Z,18.90
2023-04-18T06:29:58.405Z,16.50
2023-04-18T06:32:24.817Z,14.75
2023-04-18T06:34:52.835Z,14.60
2023-04-18T06:37:19.442Z,13.75
2023-04-18T06:39:45.998Z,14.65
2023-04-18T06:42:12.340Z,14.57
2023-04-18T06:44:38.641Z,15.07
2023-04-18T06:47:05.090Z,14.80
2023-04-18T06:49:31.493Z,16.95
2023-04-18T06:51:57.831Z,17.77
2023-04-18T06:54:24.359Z,15.70
2023-04-18T06:56:50.736Z,16.05
2023-04-18T06:59:17.130Z,14.88
2023-04-18T07:01:43.468Z,15.25
2023-04-18T07:04:09.852Z,15.35
2023-04-18T07:06:36.522Z,14.38
2023-04-18T07:09:03.083Z,15.90
2023-04-18T07:11:29.592Z,17.30
2023-04-18T07:13:56.055Z,13.55
2023-04-18T07:16:22.497Z,16.80
2023-04-18T07:18:48.863Z,15.80
2023-04-18T07:21:15.237Z,15.35
2023-04-18T07:23:41.561Z,12.48
2023-04-18T07:26:09.490Z,15.10
2023-04-18T07:28:35.831Z,14.23
2023-04-18T07:31:03.729Z,14.43
2023-04-18T07:33:33.549Z,13.88
2023-04-18T07:36:01.021Z,13.90
2023-04-18T07:38:27.644Z,13.63
2023-04-18T07:41:00.626Z,15.20
2023-04-18T07:43:26.929Z,13.73
2023-04-18T07:45:53.588Z,14.15
2023-04-18T07:48:22.527Z,14.32
2023-04-18T07:50:49.403Z,14.20
2023-04-18T07:53:16.046Z,15.52
2023-04-18T07:55:43.361Z,12.82
2023-04-18T07:58:09.912Z,13.70
2023-04-18T08:00:37.086Z,10.70
2023-04-18T08:03:03.722Z,12.95
2023-04-18T08:05:30.282Z,11.45
2023-04-18T08:07:56.615Z,10.02
2023-04-18T08:10:23.918Z,12.80
2023-04-18T08:12:50.450Z,10.85
2023-04-18T08:15:16.777Z,11.18
2023-04-18T08:17:45.139Z,12.48
2023-04-18T08:20:12.928Z,11.75
2023-04-18T08:22:49.998Z,10.48
2023-04-18T08:25:25.647Z,14.52
2023-04-18T08:27:51.954Z,9.90
2023-04-18T08:30:18.513Z,11.07
2023-04-18T08:32:44.993Z,12.18
2023-04-18T08:35:11.383Z,11.98
2023-04-18T08:37:37.763Z,10.07
2023-04-18T08:40:05.074Z,10.85
2023-04-18T08:42:31.413Z,8.73
2023-04-18T08:45:00.769Z,10.13
2023-04-18T08:47:31.089Z,9.68
2023-04-18T08:49:58.429Z,14.13
2023-04-18T08:52:25.927Z,10.43
2023-04-18T08:54:52.628Z,9.65
2023-04-18T08:57:28.385Z,9.63
2023-04-18T08:59:55.240Z,10.65
2023-04-18T09:02:23.377Z,10.63
2023-04-18T09:04:52.670Z,9.25
2023-04-18T09:07:37.370Z,9.57
2023-04-18T09:10:04.012Z,8.52
2023-04-18T09:12:30.473Z,7.75
2023-04-18T09:15:11.616Z,8.90
2023-04-18T09:17:45.534Z,8.27
2023-04-18T09:20:15.568Z,8.05
2023-04-18T09:22:47.830Z,12.55
2023-04-18T09:25:29.058Z,6.60
2023-04-18T09:28:00.853Z,8.13
2023-04-18T09:30:40.890Z,8.00
2023-04-18T09:33:12.682Z,8.63
2023-04-18T09:35:39.270Z,7.97
2023-04-18T09:38:06.125Z,7.25
2023-04-18T09:40:32.826Z,7.20
2023-04-18T09:42:59.374Z,8.20
2023-04-18T09:45:26.116Z,9.00
2023-04-18T09:47:53.255Z,10.98
2023-04-18T09:50:20.829Z,10.45
2023-04-18T09:52:48.005Z,8.73
2023-04-18T09:55:16.259Z,7.50
2023-04-18T09:57:44.190Z,7.28
2023-04-18T10:00:17.499Z,8.63
2023-04-18T10:02:50.435Z,7.80
2023-04-18T10:05:18.910Z,9.85
2023-04-18T10:07:48.118Z,8.90
2023-04-18T10:10:14.729Z,7.65
2023-04-18T10:12:41.516Z,8.95
2023-04-18T10:15:08.876Z,7.88
2023-04-18T10:18:06.067Z,7.68
2023-04-18T10:20:33.476Z,7.22
2023-04-18T10:23:00.411Z,7.72
2023-04-18T10:25:38.713Z,8.55
2023-04-18T10:28:06.087Z,8.32
2023-04-18T10:30:40.111Z,7.80
2023-04-18T10:33:31.005Z,7.88
2023-04-18T10:36:05.530Z,7.25
2023-04-18T10:38:32.582Z,8.02
2023-04-18T10:41:17.481Z,7.80
2023-04-18T10:44:02.701Z,10.32
2023-04-18T10:46:32.520Z,7.45
2023-04-18T10:49:33.930Z,9.45
2023-04-18T10:52:01.075Z,8.50
2023-04-18T10:54:28.410Z,8.75
2023-04-18T10:56:55.470Z,7.35
2023-04-18T10:59:25.317Z,6.72
2023-04-18T11:01:56.027Z,11.20
2023-04-18T11:06:57.383Z,6.63
2023-04-18T11:09:24.401Z,7.50
2023-04-18T11:12:10.644Z,7.32
2023-04-18T11:14:40.460Z,9.65
2023-04-18T11:17:26.473Z,12.10
2023-04-18T11:20:05.902Z,7.43
2023-04-18T11:22:32.302Z,11.32
2023-04-18T11:25:00.036Z,7.95
2023-04-18T11:27:26.904Z,8.90
2023-04-18T11:29:54.018Z,9.02
2023-04-18T11:32:21.784Z,10.30
2023-04-18T11:34:50.710Z,9.07
2023-04-18T11:37:17.047Z,9.02
2023-04-18T11:39:43.687Z,9.30
2023-04-18T11:42:10.514Z,8.65
2023-04-18T11:44:39.687Z,8.60
2023-04-18T11:47:21.859Z,10.02
2023-04-18T11:49:48.157Z,10.93
2023-04-18T11:52:14.493Z,10.43
2023-04-18T11:54:42.121Z,9.07
2023-04-18T11:57:21.056Z,10.55
2023-04-18T11:59:50.125Z,9.50
2023-04-18T12:02:17.172Z,10.15
2023-04-18T12:04:54.467Z,9.00
2023-04-18T12:07:40.859Z,8.93
2023-04-18T12:10:08.369Z,15.27
2023-04-18T12:12:34.978Z,11.75
2023-04-18T12:15:08.842Z,11.70
2023-04-18T12:17:36.553Z,11.48
2023-04-18T12:20:04.239Z,11.32
2023-04-18T12:22:57.752Z,11.15
2023-04-18T12:25:27.312Z,12.05
2023-04-18T12:28:13.179Z,12.85
2023-04-18T12:30:39.445Z,12.00
2023-04-18T12:33:06.540Z,15.38
2023-04-18T12:35:33.052Z,11.65
2023-04-18T12:38:00.426Z,16.98
2023-04-18T12:40:27.395Z,16.00
2023-04-18T12:42:54.252Z,13.55
2023-04-18T12:45:21.776Z,14.13
2023-04-18T12:47:49.574Z,14.43
2023-04-18T12:50:20.350Z,14.80
2023-04-18T12:52:47.146Z,13.07
2023-04-18T12:55:13.691Z,14.40
2023-04-18T12:57:41.155Z,13.98
2023-04-18T13:00:11.006Z,12.80
2023-04-18T13:02:38.761Z,12.00
2023-04-18T13:05:06.849Z,14.18
2023-04-18T13:07:33.458Z,13.68
2023-04-18T13:09:59.829Z,13.07
2023-04-18T13:12:26.273Z,13.40
2023-04-18T13:14:52.737Z,14.05
2023-04-18T13:17:19.096Z,13.27
2023-04-18T13:19:45.423Z,14.68
2023-04-18T13:22:11.738Z,14.57
2023-04-18T13:24:38.065Z,14.48
2023-04-18T13:27:10.274Z,15.40
2023-04-18T13:29:41.130Z,17.15
2023-04-18T13:32:08.028Z,16.83
2023-04-18T13:34:36.546Z,14.18
2023-04-18T13:37:03.528Z,14.70
2023-04-18T13:39:32.473Z,18.27
2023-04-18T13:41:58.991Z,15.77
2023-04-18T13:44:25.873Z,15.93
2023-04-18T13:46:52.875Z,13.98
2023-04-18T13:49:19.202Z,16.42
2023-04-18T13:51:46.462Z,16.33
2023-04-18T13:54:15.688Z,15.27
2023-04-18T13:56:42.573Z,15.93
2023-04-18T13:59:08.913Z,16.35
2023-04-18T14:01:35.347Z,14.60
2023-04-18T14:04:02.642Z,17.65
2023-04-18T14:06:29.237Z,15.85
2023-04-18T14:08:55.960Z,15.85
2023-04-18T14:11:22.847Z,16.17
2023-04-18T14:13:49.129Z,15.27
2023-04-18T14:16:15.683Z,20.50
2023-04-18T14:18:42.045Z,15.13
2023-04-18T14:21:08.391Z,15.20
2023-04-18T14:23:35.504Z,16.85
2023-04-18T14:26:01.871Z,14.52
2023-04-18T14:28:28.152Z,12.73
2023-04-18T14:30:57.943Z,15.40
2023-04-18T14:33:24.377Z,14.25
2023-04-18T14:35:51.422Z,17.33
2023-04-18T14:38:19.028Z,13.82
2023-04-18T14:40:45.579Z,14.10
2023-04-18T14:43:12.055Z,15.82
2023-04-18T14:45:38.416Z,15.02
2023-04-18T14:48:06.341Z,18.80
2023-04-18T14:50:35.899Z,13.38
2023-04-18T14:53:03.202Z,16.73
2023-04-18T14:55:29.491Z,13.70
2023-04-18T14:57:55.776Z,13.85
2023-04-18T15:00:22.147Z,15.18
2023-04-18T15:02:48.719Z,12.60
2023-04-18T15:05:15.444Z,14.57
2023-04-18T15:07:43.436Z,15.82
2023-04-18T15:10:12.527Z,15.23
2023-04-18T15:12:39.464Z,15.88
2023-04-18T15:15:06.463Z,14.65
2023-04-18T15:17:32.877Z,15.50
2023-04-18T15:19:59.395Z,13.77
2023-04-18T15:22:25.672Z,18.50
2023-04-18T15:24:51.953Z,14.65
2023-04-18T15:27:18.361Z,14.88
2023-04-18T15:29:44.676Z,15.65
2023-04-18T15:32:11.456Z,15.43
2023-04-18T15:34:37.841Z,12.85
2023-04-18T15:37:04.743Z,15.77
2023-04-18T15:39:31.090Z,17.90
2023-04-18T15:41:57.403Z,12.38
2023-04-18T15:44:23.687Z,14.13
2023-04-18T15:46:50.097Z,13.95
2023-04-18T15:49:16.519Z,14.70
2023-04-18T15:51:42.790Z,15.85
2023-04-18T15:54:09.316Z,16.42
2023-04-18T15:56:36.873Z,13.88
2023-04-18T15:59:04.514Z,13.02
2023-04-18T16:01:31.109Z,13.43
2023-04-18T16:03:57.618Z,13.23
2023-04-18T16:06:24.178Z,13.30
2023-04-18T16:08:50.747Z,14.48
2023-04-18T16:11:18.159Z,13.55
2023-04-18T16:13:44.597Z,14.55
2023-04-18T16:16:11.018Z,14.50
2023-04-18T16:18:37.347Z,13.13
2023-04-18T16:21:03.825Z,11.20
2023-04-18T16:23:30.945Z,12.93
2023-04-18T16:25:57.312Z,13.45
2023-04-18T16:28:23.880Z,13.45
2023-04-18T16:30:50.451Z,12.55
2023-04-18T16:33:16.841Z,13.48
2023-04-18T16:35:43.198Z,11.70
2023-04-18T16:38:09.536Z,13.18
2023-04-18T16:40:35.851Z,11.13
2023-04-18T16:43:02.328Z,13.88
2023-04-18T16:45:31.180Z,11.48
2023-04-18T16:47:57.631Z,12.55
2023-04-18T16:50:24.869Z,12.40
2023-04-18T16:52:51.128Z,12.27
2023-04-18T16:55:17.432Z,12.07
2023-04-18T16:57:43.782Z,14.13
2023-04-18T17:00:10.413Z,13.20
2023-04-18T17:02:39.585Z,12.27
2023-04-18T17:05:06.256Z,13.73
2023-04-18T17:07:32.645Z,13.10
2023-04-18T17:09:58.911Z,12.50
2023-04-18T17:12:25.542Z,11.65
2023-04-18T17:14:51.867Z,12.30
2023-04-18T17:17:18.214Z,12.57
2023-04-18T17:19:45.730Z,12.68
2023-04-18T17:22:12.083Z,11.75
2023-04-18T17:24:38.382Z,10.65
2023-04-18T17:27:04.670Z,13.93
2023-04-18T17:29:31.075Z,12.13
2023-04-18T17:31:57.564Z,13.60
2023-04-18T17:34:23.950Z,13.15
2023-04-18T17:36:50.476Z,14.70
2023-04-18T17:39:17.679Z,11.32
2023-04-18T17:41:44.657Z,11.50
2023-04-18T17:44:11.059Z,13.02
2023-04-18T17:46:37.526Z,12.40
2023-04-18T17:49:04.636Z,10.32
2023-04-18T17:51:31.242Z,10.98
2023-04-18T17:53:57.717Z,11.65
2023-04-18T17:56:24.020Z,13.00
2023-04-18T17:58:50.569Z,12.93
2023-04-18T18:01:17.602Z,13.27
2023-04-18T18:03:44.588Z,12.57
2023-04-18T18:06:12.097Z,13.18
2023-04-18T18:08:38.657Z,16.70
2023-04-18T18:11:06.077Z,12.52
2023-04-18T18:13:32.619Z,12.00
2023-04-18T18:15:59.030Z,11.13
2023-04-18T18:18:25.324Z,14.77
2023-04-18T18:20:51.756Z,17.50
2023-04-18T18:23:18.026Z,16.50
2023-04-18T18:25:44.301Z,13.77
2023-04-18T18:28:10.626Z,13.15
2023-04-18T18:30:37.995Z,15.93
2023-04-18T18:33:04.497Z,11.98
2023-04-18T18:35:30.785Z,13.02
2023-04-18T18:37:57.050Z,12.65
2023-04-18T18:40:23.584Z,14.75
2023-04-18T18:42:51.491Z,14.95
2023-04-18T18:45:17.988Z,12.07
2023-04-18T18:47:44.298Z,11.10
2023-04-18T18:50:10.665Z,12.80
2023-04-18T18:52:37.073Z,11.60
2023-04-18T18:55:03.918Z,12.52
2023-04-18T18:57:30.580Z,12.80
2023-04-18T18:59:56.935Z,12.85
2023-04-18T19:02:23.557Z,13.27
2023-04-18T19:04:50.216Z,12.95
2023-04-18T19:07:16.714Z,13.43
2023-04-18T19:09:43.009Z,14.45
2023-04-18T19:12:09.967Z,11.20
2023-04-18T19:14:36.322Z,11.15
2023-04-18T19:17:02.682Z,11.98
2023-04-18T19:19:28.993Z,13.05
2023-04-18T19:21:55.301Z,13.63
2023-04-18T19:24:21.714Z,11.13
2023-04-18T19:26:48.118Z,11.27
2023-04-18T19:29:14.714Z,11.20
2023-04-18T19:31:43.533Z,11.20
2023-04-18T19:34:10.764Z,14.77
2023-04-18T19:36:37.199Z,14.27
2023-04-18T19:39:03.628Z,14.55
2023-04-18T19:41:29.957Z,12.20
2023-04-18T19:43:56.637Z,12.13
2023-04-18T19:46:22.969Z,10.30
2023-04-18T19:48:49.416Z,11.95
2023-04-18T19:51:15.881Z,14.25
2023-04-18T19:53:42.220Z,10.18
2023-04-18T19:56:11.081Z,10.63
2023-04-18T19:58:44.990Z,12.00
2023-04-18T20:01:12.118Z,10.93
2023-04-18T20:03:39.023Z,11.40
2023-04-18T20:06:05.801Z,10.80
2023-04-18T20:08:32.672Z,11.60
2023-04-18T20:10:58.972Z,13.30
2023-04-18T20:13:25.332Z,11.18
2023-04-18T20:15:52.821Z,12.40
2023-04-18T20:18:19.195Z,12.05
2023-04-18T20:20:45.621Z,10.82
2023-04-18T20:23:11.977Z,12.75
2023-04-18T20:25:38.410Z,11.10
2023-04-18T20:28:05.345Z,12.65
2023-04-18T20:30:31.710Z,9.48
2023-04-18T20:32:58.149Z,11.57
2023-04-18T20:35:24.542Z,14.07
2023-04-18T20:37:50.787Z,12.65
2023-04-18T20:40:17.077Z,12.10
2023-04-18T20:42:43.403Z,11.23
2023-04-18T20:45:11.074Z,10.73
2023-04-18T20:47:37.888Z,10.32
2023-04-18T20:50:04.498Z,11.73
2023-04-18T20:52:31.040Z,11.82
2023-04-18T20:54:57.339Z,11.60
2023-04-18T20:57:23.610Z,12.07
2023-04-18T20:59:50.070Z,12.98
2023-04-18T21:02:16.496Z,10.40
2023-04-18T21:04:43.001Z,12.73
2023-04-18T21:07:09.408Z,11.25
2023-04-18T21:09:38.565Z,10.18
2023-04-18T21:12:05.313Z,12.38
2023-04-18T21:14:31.671Z,11.07
2023-04-18T21:16:58.449Z,10.98
2023-04-18T21:19:24.869Z,10.85
2023-04-18T21:21:51.174Z,12.07
2023-04-18T21:24:17.987Z,12.50
2023-04-18T21:26:44.262Z,13.07
2023-04-18T21:29:11.093Z,12.05
2023-04-18T21:31:37.585Z,10.27
2023-04-18T21:34:05.229Z,12.23
2023-04-18T21:36:31.987Z,11.00
2023-04-18T21:38:59.073Z,11.77
2023-04-18T21:41:25.486Z,12.35
2023-04-18T21:43:52.125Z,10.40
2023-04-18T21:46:18.541Z,11.05
2023-04-18T21:48:45.777Z,11.23
2023-04-18T21:51:13.277Z,11.77
2023-04-18T21:53:40.095Z,11.18
2023-04-18T21:56:07.152Z,12.35
2023-04-18T21:58:33.465Z,11.20
2023-04-18T22:00:59.794Z,11.32
2023-04-18T22:03:26.677Z,11.07
2023-04-18T22:05:53.280Z,12.10
2023-04-18T22:08:20.238Z,11.20
2023-04-18T22:10:50.427Z,11.55
2023-04-18T22:13:18.905Z,13.00
2023-04-18T22:15:46.106Z,13.30
2023-04-18T22:18:14.053Z,10.23
2023-04-18T22:20:43.978Z,11.00
2023-04-18T22:23:10.948Z,11.52
2023-04-18T22:25:37.380Z,13.13
2023-04-18T22:28:04.072Z,14.30
2023-04-18T22:30:31.055Z,10.70
2023-04-18T22:32:57.975Z,11.50
2023-04-18T22:35:24.423Z,11.77
2023-04-18T22:37:50.738Z,10.90
2023-04-18T22:40:17.183Z,12.25
2023-04-18T22:42:43.531Z,10.45
2023-04-18T22:45:10.158Z,11.82
2023-04-18T22:47:36.461Z,12.68
2023-04-18T22:50:02.828Z,10.52
2023-04-18T22:52:29.144Z,11.65
2023-04-18T22:54:55.768Z,12.07
2023-04-18T22:57:22.037Z,12.07
2023-04-18T22:59:48.349Z,11.55
2023-04-18T23:02:15.113Z,14.55
2023-04-18T23:04:42.422Z,16.95
2023-04-18T23:07:09.136Z,14.27
2023-04-18T23:09:35.421Z,16.08
2023-04-18T23:12:02.391Z,16.13
2023-04-18T23:14:29.064Z,13.20
2023-04-18T23:16:55.608Z,17.45
2023-04-18T23:19:22.051Z,13.93
2023-04-18T23:21:49.717Z,14.85
2023-04-18T23:24:16.373Z,14.93
2023-04-18T23:26:42.803Z,13.43
2023-04-18T23:29:09.175Z,13.23
2023-04-18T23:31:35.598Z,13.02
2023-04-18T23:34:01.882Z,13.90
2023-04-18T23:36:28.211Z,13.07
2023-04-18T23:38:54.560Z,12.43
2023-04-18T23:41:21.047Z,15.95
2023-04-18T23:43:47.419Z,12.48
2023-04-18T23:46:13.795Z,11.15
2023-04-18T23:48:40.175Z,12.55
2023-04-18T23:51:06.468Z,14.43
2023-04-18T23:53:32.805Z,14.68
2023-04-18T23:55:59.105Z,13.70
2023-04-18T23:58:26.480Z,14.10
